Thetys II — FGTO — position and weather

sailwx.info

Track history (hours):
 
Tides and Currents Weather Stations Pressure Air Temp Water Temp Dewpoint Dewpoint Depression Visibility Wind Speed Wind Dir Waves Ship Positions

Oceanographic research ship Thetys II (France)

Last reported at 2019-Feb-23 17:58 UTC. Time now 2019-Feb-23 18:11 UTC.
Position N 43°42' E 007°17'.

Length 25 m; beam 8 m.

Type: Ship. MMSI: 227212000.

Date/timePositionNaut miles runAvg speedWind from/ knotsBaromVisibWave heightAir tempDewpointWater temp
2019-Feb-23 17:58N 43°42' E 007°17'0 0.0
2019-Feb-23 17:28N 43°42' E 007°17'0 0.0
2019-Feb-23 16:58N 43°42' E 007°17'0 0.0
2019-Feb-23 16:28N 43°42' E 007°17'0 0.0
2019-Feb-23 15:58N 43°42' E 007°17'0 0.0
2019-Feb-23 15:28N 43°42' E 007°17'1 1.8
2019-Feb-23 15:01N 43°41' E 007°18'4 8.1
2019-Feb-23 14:30N 43°38' E 007°21'1 2.3
2019-Feb-23 14:01N 43°37' E 007°22'2 3.2
2019-Feb-23 13:30N 43°37' E 007°20'1 2.6
2019-Feb-23 13:01N 43°38' E 007°18'4 8.3
2019-Feb-23 12:31N 43°42' E 007°17'0 0.3
2019-Feb-23 11:58N 43°42' E 007°17'0 0.0
2019-Feb-23 11:28N 43°42' E 007°17'0 0.0
2019-Feb-23 10:58N 43°42' E 007°17'0 0.0
2019-Feb-23 10:28N 43°42' E 007°17'0 0.0
2019-Feb-23 09:58N 43°42' E 007°17'0 0.0
2019-Feb-23 09:28N 43°42' E 007°17'0 0.0
2019-Feb-23 08:58N 43°42' E 007°17'0 0.0
2019-Feb-23 08:28N 43°42' E 007°17'0 0.0
2019-Feb-23 07:58N 43°42' E 007°17'0 0.0
2019-Feb-23 07:25N 43°42' E 007°17'0 0.0
2019-Feb-23 07:00N 43°42' E 007°17'0 0.0
2019-Feb-23 06:31N 43°42' E 007°17'2 4.5
2019-Feb-23 06:00N 43°40' E 007°16'3 6.0
2019-Feb-23 05:31N 43°37' E 007°14'3 6.1
2019-Feb-23 05:01N 43°34' E 007°12'3 6.0
2019-Feb-23 04:31N 43°32' E 007°10'3 5.6
2019-Feb-23 04:01N 43°30' E 007°07'3 5.7
2019-Feb-23 03:31N 43°28' E 007°05'3 5.5
2019-Feb-23 03:01N 43°26' E 007°02'3 5.6
2019-Feb-23 02:31N 43°23' E 006°60'3 5.6
2019-Feb-23 02:00N 43°21' E 006°57'3 5.4
2019-Feb-23 01:30N 43°20' E 006°54'3 5.4
2019-Feb-23 01:00N 43°17' E 006°52'3 5.5
2019-Feb-23 00:31N 43°15' E 006°49'2 4.5
2019-Feb-23 00:00N 43°14' E 006°47'3 5.1
2019-Feb-22 23:28N 43°11' E 006°45'2 4.4
2019-Feb-22 23:00N 43°10' E 006°43'2 5.0
2019-Feb-22 22:31N 43°08' E 006°40'5 5.3
2019-Feb-22 21:38N 43°07' E 006°34'1 5.4
2019-Feb-22 21:30N 43°07' E 006°33'3 5.4
2019-Feb-22 20:52N 43°06' E 006°29'2 5.4
2019-Feb-22 20:31N 43°05' E 006°26'3 5.4
2019-Feb-22 20:00N 43°04' E 006°23'3 5.5
2019-Feb-22 19:30N 43°04' E 006°19'3 5.5
2019-Feb-22 18:58N 43°03' E 006°15'14 6.5
2019-Feb-22 16:52N 43°05' E 005°57'2 6.8
2019-Feb-22 16:30N 43°06' E 005°54'1 1.5
2019-Feb-22 15:58N 43°06' E 005°53'0 0.0
2019-Feb-22 15:28N 43°06' E 005°53'0 0.0
2019-Feb-22 14:58N 43°06' E 005°53'0 0.0
2019-Feb-22 14:28N 43°06' E 005°53'0 0.0
2019-Feb-22 13:58N 43°06' E 005°53'0 0.0
2019-Feb-22 13:28N 43°06' E 005°53'0 0.0
2019-Feb-22 12:58N 43°06' E 005°53'0 0.0
2019-Feb-22 12:28N 43°06' E 005°53'0 0.0
2019-Feb-22 11:58N 43°06' E 005°53'0 0.0
2019-Feb-22 11:28N 43°06' E 005°53'0 0.0
2019-Feb-22 10:58N 43°06' E 005°53'0 0.0
2019-Feb-22 10:28N 43°06' E 005°53'0 0.0
2019-Feb-22 09:58N 43°06' E 005°53'0 0.0
2019-Feb-22 09:28N 43°06' E 005°53'0 0.0
2019-Feb-22 08:58N 43°06' E 005°53'0 0.0
2019-Feb-22 08:28N 43°06' E 005°53'0 0.0
2019-Feb-22 07:58N 43°06' E 005°53'0 0.0
2019-Feb-22 07:28N 43°06' E 005°53'0 0.0
2019-Feb-22 06:58N 43°06' E 005°53'0 0.0
2019-Feb-22 06:28N 43°06' E 005°53'0 0.0
2019-Feb-22 05:58N 43°06' E 005°53'0 0.0
2019-Feb-22 05:28N 43°06' E 005°53'0 0.0
2019-Feb-22 04:58N 43°06' E 005°53'0 0.0
2019-Feb-22 04:28N 43°06' E 005°53'0 0.0
2019-Feb-22 03:58N 43°06' E 005°53'0 0.0
2019-Feb-22 03:28N 43°06' E 005°53'0 0.0
2019-Feb-22 02:58N 43°06' E 005°53'0 0.0
2019-Feb-22 02:28N 43°06' E 005°53'0 0.0
2019-Feb-22 01:58N 43°06' E 005°53'0 0.0
2019-Feb-22 01:28N 43°06' E 005°53'0 0.0
2019-Feb-22 00:58N 43°06' E 005°53'0 0.0
2019-Feb-22 00:28N 43°06' E 005°53'0 0.0
2019-Feb-21 23:58N 43°06' E 005°53'0 0.0
2019-Feb-21 23:28N 43°06' E 005°53'0 0.0
2019-Feb-21 22:58N 43°06' E 005°53'0 0.0
2019-Feb-21 22:28N 43°06' E 005°53'0 0.0
2019-Feb-21 21:58N 43°06' E 005°53'0 0.0
2019-Feb-21 21:28N 43°06' E 005°53'0 0.0
2019-Feb-21 20:58N 43°06' E 005°53'0 0.0
2019-Feb-21 20:28N 43°06' E 005°53'0 0.0
2019-Feb-21 19:55N 43°06' E 005°53'0 0.0
2019-Feb-21 19:28N 43°06' E 005°53'0 0.0
2019-Feb-21 18:58N 43°06' E 005°53'0 0.0
2019-Feb-21 18:28N 43°06' E 005°53'0 0.0
2019-Feb-21 17:55N 43°06' E 005°53'0 0.0
2019-Feb-21 17:28N 43°06' E 005°53'0 0.0
2019-Feb-21 16:58N 43°06' E 005°53'0 0.0
2019-Feb-21 16:28N 43°06' E 005°53'0 0.0
2019-Feb-21 15:58N 43°06' E 005°53'0 0.0
2019-Feb-21 15:28N 43°06' E 005°53'0 0.0
2019-Feb-21 14:58N 43°06' E 005°53'0 0.0
2019-Feb-21 14:28N 43°06' E 005°53'0 0.0
2019-Feb-21 13:58N 43°06' E 005°53'0 0.0
2019-Feb-21 13:28N 43°06' E 005°53'0 0.0
2019-Feb-21 12:58N 43°06' E 005°53'0 0.0
2019-Feb-21 12:28N 43°06' E 005°53'0 0.0
2019-Feb-21 11:58N 43°06' E 005°53'0 0.0
2019-Feb-21 11:28N 43°06' E 005°53'0 0.0
2019-Feb-21 10:58N 43°06' E 005°53'0 0.0
2019-Feb-21 10:28N 43°06' E 005°53'0 0.0
2019-Feb-21 09:58N 43°06' E 005°53'0 0.0
2019-Feb-21 09:28N 43°06' E 005°53'0 0.0
2019-Feb-21 08:58N 43°06' E 005°53'0 0.0
2019-Feb-21 08:28N 43°06' E 005°53'0 0.0
2019-Feb-21 07:58N 43°06' E 005°53'0 0.0
2019-Feb-21 07:28N 43°06' E 005°53'0 0.0
2019-Feb-21 06:58N 43°06' E 005°53'0 0.0
2019-Feb-21 06:28N 43°06' E 005°53'0 0.0
2019-Feb-21 05:58N 43°06' E 005°53'0 0.0
2019-Feb-21 05:28N 43°06' E 005°53'0 0.0
2019-Feb-21 04:58N 43°06' E 005°53'0 0.0
2019-Feb-21 04:28N 43°06' E 005°53'0 0.0
2019-Feb-21 03:58N 43°06' E 005°53'0 0.0
2019-Feb-21 03:28N 43°06' E 005°53'0 0.0
2019-Feb-21 02:58N 43°06' E 005°53'0 0.0
2019-Feb-21 02:28N 43°06' E 005°53'0 0.0
2019-Feb-21 01:58N 43°06' E 005°53'0 0.0
2019-Feb-21 01:28N 43°06' E 005°53'0 0.0
2019-Feb-21 00:58N 43°06' E 005°53'0 0.0
2019-Feb-21 00:28N 43°06' E 005°53'0 0.0
2019-Feb-20 23:58N 43°06' E 005°53'0 0.0
2019-Feb-20 23:28N 43°06' E 005°53'0 0.0
2019-Feb-20 22:58N 43°06' E 005°53'0 0.0
2019-Feb-20 22:28N 43°06' E 005°53'0 0.0
2019-Feb-20 21:58N 43°06' E 005°53'0 0.0
2019-Feb-20 21:28N 43°06' E 005°53'0 0.0
2019-Feb-20 20:58N 43°06' E 005°53'0 0.0
2019-Feb-20 20:28N 43°06' E 005°53'1 2.3
2019-Feb-20 20:01N 43°06' E 005°55'1 0.1
2019-Feb-20 09:33N 43°06' E 005°55'0 9.4
2019-Feb-20 09:30N 43°06' E 005°55'2 3.0
2019-Feb-20 09:00N 43°06' E 005°53'0 0.0
2019-Feb-20 08:30N 43°06' E 005°53'0 0.0
2019-Feb-20 08:00N 43°06' E 005°53'0 0.0
2019-Feb-20 07:30N 43°06' E 005°53'0 0.0
2019-Feb-20 07:00N 43°06' E 005°53'1 2.6
2019-Feb-20 06:30N 43°06' E 005°55'37 6.4
2019-Feb-20 00:47N 43°07' E 006°45'3 8.9
2019-Feb-20 00:29N 43°09' E 006°47'4 8.8
2019-Feb-20 00:00N 43°13' E 006°51'4 8.8
2019-Feb-19 23:30N 43°16' E 006°55'4 8.8
2019-Feb-19 23:00N 43°20' E 006°59'5 9.2
2019-Feb-19 22:30N 43°23' E 007°02'5 9.2
2019-Feb-19 22:00N 43°27' E 007°06'5 9.0
2019-Feb-19 21:31N 43°31' E 007°10'4 8.6
2019-Feb-19 21:01N 43°34' E 007°13'4 8.4
2019-Feb-19 20:31N 43°38' E 007°16'4 7.5
2019-Feb-19 20:00N 43°42' E 007°17'0 0.5
2019-Feb-19 19:30N 43°42' E 007°17'0 0.0
2019-Feb-19 19:00N 43°42' E 007°17'0 0.0
2019-Feb-19 18:30N 43°42' E 007°17'0 0.0
2019-Feb-19 18:00N 43°42' E 007°17'0 0.1
2019-Feb-19 17:31N 43°42' E 007°17'4 8.5
2019-Feb-19 17:01N 43°38' E 007°21'510.6
2019-Feb-19 16:31N 43°35' E 007°27'510.8
2019-Feb-19 16:01N 43°33' E 007°33'611.3
2019-Feb-19 15:31N 43°30' E 007°40'611.5
2019-Feb-19 15:01N 43°27' E 007°47'5 9.0
2019-Feb-19 14:31N 43°24' E 007°51'3 5.3
2019-Feb-19 14:00N 43°23' E 007°54'1 1.1
2019-Feb-19 13:31N 43°22' E 007°54'0 0.8
2019-Feb-19 13:00N 43°22' E 007°54'0 0.2
2019-Feb-19 12:31N 43°22' E 007°54'0 0.2
2019-Feb-19 12:00N 43°22' E 007°54'0 0.2
2019-Feb-19 11:31N 43°22' E 007°54'4 8.8
2019-Feb-19 11:01N 43°24' E 007°49'510.9
2019-Feb-19 10:31N 43°27' E 007°42'510.8
2019-Feb-19 10:00N 43°30' E 007°36'511.0
2019-Feb-19 09:31N 43°33' E 007°30'611.1
2019-Feb-19 09:01N 43°37' E 007°24'611.3
2019-Feb-19 08:31N 43°40' E 007°18'2 3.0
2019-Feb-19 07:58N 43°42' E 007°17'0 0.3
2019-Feb-19 07:29N 43°42' E 007°17'0 0.1
2019-Feb-19 06:59N 43°42' E 007°17'0 0.6
2019-Feb-19 06:29N 43°42' E 007°17'1 1.2
2019-Feb-19 05:56N 43°41' E 007°17'1 1.4
2019-Feb-19 05:29N 43°42' E 007°17'0 0.3
2019-Feb-19 04:59N 43°42' E 007°17'0 0.4
2019-Feb-19 04:29N 43°42' E 007°17'0 0.5
2019-Feb-19 03:59N 43°42' E 007°16'0 0.7
2019-Feb-19 03:29N 43°42' E 007°17'0 0.1
2019-Feb-19 02:59N 43°42' E 007°17'0 0.1
2019-Feb-19 02:29N 43°42' E 007°16'0 0.4
2019-Feb-19 01:59N 43°42' E 007°17'0 0.1
2019-Feb-19 01:29N 43°42' E 007°17'0 0.3
2019-Feb-19 00:59N 43°42' E 007°17'0 0.2
2019-Feb-19 00:29N 43°42' E 007°17'0 0.9
2019-Feb-18 23:59N 43°42' E 007°17'0 0.5
2019-Feb-18 23:29N 43°42' E 007°17'0 0.4
2019-Feb-18 22:59N 43°42' E 007°17'0 0.5
2019-Feb-18 22:29N 43°42' E 007°17'0 0.6
2019-Feb-18 21:59N 43°42' E 007°17'0 0.7
2019-Feb-18 21:29N 43°42' E 007°17'0 0.3
2019-Feb-18 20:59N 43°42' E 007°17'0 0.6
2019-Feb-18 20:29N 43°42' E 007°17'0 0.1
2019-Feb-18 19:59N 43°42' E 007°17'0 0.1
2019-Feb-18 19:29N 43°42' E 007°17'0 0.8
2019-Feb-18 19:00N 43°42' E 007°17'3 6.3
2019-Feb-18 18:30N 43°39' E 007°20'611.5
2019-Feb-18 18:01N 43°36' E 007°26'5 9.9
2019-Feb-18 17:31N 43°34' E 007°32'611.0
2019-Feb-18 17:01N 43°30' E 007°38'5 9.7
2019-Feb-18 16:31N 43°27' E 007°43'510.2
2019-Feb-18 16:01N 43°24' E 007°49'3 6.4
2019-Feb-18 15:31N 43°22' E 007°52'1 1.7
2019-Feb-18 15:00N 43°22' E 007°53'0 0.4
2019-Feb-18 14:30N 43°22' E 007°53'0 0.5
2019-Feb-18 14:01N 43°22' E 007°54'0 0.4
2019-Feb-18 13:31N 43°22' E 007°54'0 0.9
2019-Feb-18 13:01N 43°22' E 007°53'0 0.5
2019-Feb-18 12:31N 43°22' E 007°54'1 2.2
2019-Feb-18 12:01N 43°23' E 007°53'0 0.5
2019-Feb-18 11:31N 43°23' E 007°54'0 0.3
2019-Feb-18 11:00N 43°22' E 007°54'1 1.4
2019-Feb-18 10:31N 43°22' E 007°53'4 7.3
2019-Feb-18 10:01N 43°24' E 007°48'510.5
2019-Feb-18 09:31N 43°27' E 007°43'611.2
2019-Feb-18 09:01N 43°31' E 007°37'611.4
2019-Feb-18 08:31N 43°35' E 007°31'611.1
2019-Feb-18 08:00N 43°38' E 007°25'510.5
2019-Feb-18 07:31N 43°40' E 007°18'2 3.5
2019-Feb-18 07:00N 43°41' E 007°17'0 0.1
2019-Feb-18 06:27N 43°42' E 007°17'0 0.3
2019-Feb-18 06:00N 43°42' E 007°17'0 0.5
2019-Feb-18 05:30N 43°42' E 007°17'0 0.3
2019-Feb-18 04:57N 43°42' E 007°17'0 0.2
2019-Feb-18 04:30N 43°42' E 007°17'0 0.7
2019-Feb-18 03:57N 43°42' E 007°16'0 0.4
2019-Feb-18 03:30N 43°42' E 007°17'0 0.6
2019-Feb-18 02:57N 43°42' E 007°17'0 0.1
2019-Feb-18 02:27N 43°42' E 007°17'0 0.3
2019-Feb-18 02:00N 43°42' E 007°17'0 0.4
2019-Feb-18 01:27N 43°42' E 007°17'0 0.5
2019-Feb-18 01:00N 43°42' E 007°17'0 0.3
2019-Feb-18 00:30N 43°42' E 007°17'0 0.7
2019-Feb-18 00:00N 43°42' E 007°17'0 0.6
2019-Feb-17 23:30N 43°42' E 007°17'0 0.1
2019-Feb-17 23:00N 43°42' E 007°17'0 0.5
2019-Feb-17 22:30N 43°42' E 007°17'0 0.9
2019-Feb-17 22:00N 43°42' E 007°17'0 0.2
2019-Feb-17 21:30N 43°42' E 007°17'1 1.6
2019-Feb-17 21:00N 43°42' E 007°17'1 1.2
2019-Feb-17 20:30N 43°42' E 007°17'0 0.0
2019-Feb-17 20:00N 43°42' E 007°17'0 0.0
2019-Feb-17 19:30N 43°42' E 007°17'1 1.0
2019-Feb-17 19:00N 43°41' E 007°17'4 7.8
2019-Feb-17 18:30N 43°39' E 007°20'4 8.8
2019-Feb-17 18:01N 43°37' E 007°26'4 8.9
2019-Feb-17 17:30N 43°35' E 007°31'5 9.8
2019-Feb-17 17:01N 43°32' E 007°37'5 9.5
2019-Feb-17 16:31N 43°29' E 007°42'5 9.6
2019-Feb-17 16:00N 43°26' E 007°47'2 4.9
2019-Feb-17 15:30N 43°25' E 007°50'2 3.7
2019-Feb-17 15:00N 43°24' E 007°52'2 3.7
2019-Feb-17 14:30N 43°22' E 007°54'0 0.7
2019-Feb-17 14:00N 43°23' E 007°54'0 0.8
2019-Feb-17 13:30N 43°23' E 007°54'1 1.8
2019-Feb-17 13:00N 43°22' E 007°54'0 0.6
2019-Feb-17 12:30N 43°22' E 007°54'0 0.9
2019-Feb-17 12:00N 43°22' E 007°54'0 0.9
2019-Feb-17 11:29N 43°22' E 007°54'0 0.5
2019-Feb-17 11:00N 43°23' E 007°54'1 1.1
2019-Feb-17 10:30N 43°22' E 007°53'510.5
2019-Feb-17 10:00N 43°25' E 007°47'510.5
2019-Feb-17 09:30N 43°28' E 007°42'510.8
2019-Feb-17 09:01N 43°31' E 007°35'511.0
2019-Feb-17 08:31N 43°34' E 007°29'510.6
2019-Feb-17 08:00N 43°38' E 007°23'510.0
2019-Feb-17 07:30N 43°40' E 007°17'1 2.7
2019-Feb-17 07:00N 43°41' E 007°17'0 0.4
2019-Feb-17 06:30N 43°42' E 007°17'0 0.3
2019-Feb-17 06:00N 43°42' E 007°17'0 0.5
2019-Feb-17 05:30N 43°42' E 007°17'0 0.3
2019-Feb-17 05:00N 43°42' E 007°17'0 0.2
2019-Feb-17 04:30N 43°42' E 007°17'0 0.2
2019-Feb-17 04:00N 43°42' E 007°17'0 0.2
2019-Feb-17 03:30N 43°42' E 007°17'0 0.1
2019-Feb-17 03:00N 43°42' E 007°17'0 0.5
2019-Feb-17 02:30N 43°42' E 007°17'0 0.6
2019-Feb-17 02:00N 43°42' E 007°17'0 0.1
2019-Feb-17 01:30N 43°42' E 007°17'0 0.3
2019-Feb-17 01:00N 43°42' E 007°17'0 0.8
2019-Feb-17 00:30N 43°42' E 007°17'0 0.1
2019-Feb-17 00:00N 43°42' E 007°17'0 0.2
2019-Feb-16 23:30N 43°42' E 007°17'0 0.2
2019-Feb-16 23:00N 43°42' E 007°17'1 1.4
2019-Feb-16 22:30N 43°42' E 007°18'0 0.4
2019-Feb-16 21:57N 43°42' E 007°17'1 1.6
2019-Feb-16 21:30N 43°42' E 007°17'0 0.2
2019-Feb-16 21:00N 43°42' E 007°17'0 0.8
2019-Feb-16 20:30N 43°42' E 007°17'0 0.1
2019-Feb-16 20:00N 43°42' E 007°17'0 0.2
2019-Feb-16 19:30N 43°42' E 007°17'0 0.6
2019-Feb-16 19:00N 43°42' E 007°17'0 0.4
2019-Feb-16 18:27N 43°41' E 007°17'0 0.9
2019-Feb-16 18:00N 43°42' E 007°17'0 0.8
2019-Feb-16 17:30N 43°42' E 007°17'1 1.3
2019-Feb-16 16:57N 43°41' E 007°17'0 0.0
2019-Feb-16 16:30N 43°41' E 007°17'4 8.7
2019-Feb-16 16:00N 43°38' E 007°21'611.7
2019-Feb-16 15:30N 43°35' E 007°28'611.1
2019-Feb-16 15:00N 43°32' E 007°35'611.3
2019-Feb-16 14:30N 43°29' E 007°41'611.9
2019-Feb-16 14:00N 43°26' E 007°48'1 2.3
2019-Feb-16 13:30N 43°25' E 007°49'0 0.6
2019-Feb-16 13:00N 43°25' E 007°49'1 1.2
2019-Feb-16 12:30N 43°25' E 007°50'1 1.4
2019-Feb-16 12:00N 43°25' E 007°51'0 0.4
2019-Feb-16 11:30N 43°25' E 007°51'0 0.9
2019-Feb-16 11:00N 43°26' E 007°51'1 1.9
2019-Feb-16 10:30N 43°25' E 007°50'2 3.3
2019-Feb-16 10:00N 43°26' E 007°48'510.6
2019-Feb-16 09:30N 43°29' E 007°43'510.5
2019-Feb-16 09:00N 43°32' E 007°37'510.8
2019-Feb-16 08:30N 43°35' E 007°30'5 9.8
2019-Feb-16 08:00N 43°37' E 007°25'510.3
2019-Feb-16 07:30N 43°40' E 007°18'2 4.1
2019-Feb-16 06:59N 43°41' E 007°17'0 0.1
2019-Feb-16 06:26N 43°41' E 007°17'0 1.1
2019-Feb-16 05:59N 43°42' E 007°17'0 0.2
2019-Feb-16 05:29N 43°42' E 007°17'0 0.3
2019-Feb-16 04:59N 43°42' E 007°17'0 0.4
2019-Feb-16 04:23N 43°42' E 007°17'0 0.1
2019-Feb-16 03:59N 43°42' E 007°16'0 0.2
2019-Feb-16 03:29N 43°42' E 007°16'0 0.4
2019-Feb-16 02:59N 43°42' E 007°17'0 0.2
2019-Feb-16 02:29N 43°42' E 007°17'0 0.2
2019-Feb-16 01:56N 43°42' E 007°17'0 0.7
2019-Feb-16 01:29N 43°42' E 007°17'1 1.1
2019-Feb-16 00:59N 43°42' E 007°17'1 1.1
2019-Feb-16 00:29N 43°42' E 007°16'0 0.2
2019-Feb-15 23:59N 43°42' E 007°17'0 0.3
2019-Feb-15 23:29N 43°42' E 007°17'0 0.4
2019-Feb-15 22:59N 43°42' E 007°17'0 0.6
2019-Feb-15 22:26N 43°42' E 007°17'0 0.6
2019-Feb-15 21:59N 43°41' E 007°17'0 0.2
2019-Feb-15 21:29N 43°41' E 007°17'0 0.9
2019-Feb-15 20:59N 43°42' E 007°17'1 1.2
2019-Feb-15 20:29N 43°42' E 007°18'1 1.1
2019-Feb-15 19:59N 43°42' E 007°17'0 0.9
2019-Feb-15 19:29N 43°42' E 007°17'0 0.9
2019-Feb-15 18:59N 43°41' E 007°17'0 0.3
2019-Feb-15 18:30N 43°41' E 007°17'0 0.7
2019-Feb-15 18:00N 43°42' E 007°17'0 0.7
2019-Feb-15 17:30N 43°42' E 007°17'1 1.3
2019-Feb-15 17:00N 43°41' E 007°17'0 0.6
2019-Feb-15 16:27N 43°41' E 007°17'0 0.3
2019-Feb-15 16:00N 43°41' E 007°17'1 1.0
2019-Feb-15 15:24N 43°42' E 007°17'2 4.8
2019-Feb-15 15:01N 43°40' E 007°16'611.2
2019-Feb-15 14:30N 43°35' E 007°13'510.7
2019-Feb-15 14:01N 43°31' E 007°09'510.9
2019-Feb-15 13:31N 43°27' E 007°04'510.5
2019-Feb-15 13:00N 43°23' E 006°59'510.2
2019-Feb-15 12:31N 43°19' E 006°54'5 9.5
2019-Feb-15 12:00N 43°16' E 006°49'510.5
2019-Feb-15 11:31N 43°12' E 006°44'37 9.8
2019-Feb-15 07:47N 43°06' E 005°55'1 5.3
2019-Feb-15 07:30N 43°06' E 005°53'0 0.7
2019-Feb-15 06:58N 43°06' E 005°53'0 0.2
2019-Feb-15 06:28N 43°06' E 005°53'0 0.7
2019-Feb-15 05:58N 43°06' E 005°53'1 0.9
2019-Feb-15 05:25N 43°07' E 005°53'0 0.3
2019-Feb-15 04:58N 43°07' E 005°53'0 0.2
2019-Feb-15 04:28N 43°07' E 005°53'0 0.2
2019-Feb-15 03:58N 43°06' E 005°53'0 0.1
2019-Feb-15 03:28N 43°06' E 005°53'0 0.2
2019-Feb-15 02:58N 43°07' E 005°53'0 0.4
2019-Feb-15 02:28N 43°07' E 005°53'0 0.4
2019-Feb-15 01:58N 43°07' E 005°53'0 0.4
2019-Feb-15 01:28N 43°06' E 005°53'0 0.4
2019-Feb-15 00:58N 43°06' E 005°53'0 0.5
2019-Feb-15 00:28N 43°06' E 005°53'0 0.6
2019-Feb-14 23:58N 43°07' E 005°53'0 0.2
2019-Feb-14 23:28N 43°06' E 005°53'0 0.7
2019-Feb-14 22:58N 43°06' E 005°53'0 0.2
2019-Feb-14 22:28N 43°06' E 005°53'0 0.2
2019-Feb-14 21:58N 43°06' E 005°53'0 0.2
2019-Feb-14 21:28N 43°06' E 005°53'0 1.0
2019-Feb-14 20:59N 43°06' E 005°53'0 0.4
2019-Feb-14 20:25N 43°06' E 005°53'0 0.3
2019-Feb-14 19:58N 43°07' E 005°53'0 0.6
2019-Feb-14 19:28N 43°06' E 005°53'0 0.1
2019-Feb-14 18:58N 43°06' E 005°53'0 0.4
2019-Feb-14 18:28N 43°06' E 005°53'0 0.5
2019-Feb-14 17:58N 43°06' E 005°53'0 0.3
2019-Feb-14 17:28N 43°06' E 005°53'0 0.1
2019-Feb-14 16:58N 43°07' E 005°53'0 0.4
2019-Feb-14 16:23N 43°06' E 005°53'0 0.0
2019-Feb-14 15:59N 43°06' E 005°53'0 0.0
2019-Feb-14 15:29N 43°06' E 005°53'0 0.0
2019-Feb-14 14:59N 43°06' E 005°53'0 0.0
2019-Feb-14 14:29N 43°06' E 005°53'0 0.0
2019-Feb-14 13:59N 43°06' E 005°53'0 0.0
2019-Feb-14 13:29N 43°06' E 005°53'0 0.0
2019-Feb-14 12:59N 43°06' E 005°53'0 0.0
2019-Feb-14 12:29N 43°06' E 005°53'0 0.0
2019-Feb-14 11:59N 43°06' E 005°53'0 0.0
2019-Feb-14 11:29N 43°06' E 005°53'0 0.0
2019-Feb-14 10:59N 43°06' E 005°53'0 0.0
2019-Feb-14 10:29N 43°06' E 005°53'0 0.0
2019-Feb-14 09:59N 43°06' E 005°53'0 0.0
2019-Feb-14 09:29N 43°06' E 005°53'0 0.0
2019-Feb-14 08:59N 43°06' E 005°53'0 0.0
2019-Feb-14 08:29N 43°06' E 005°53'0 0.0
2019-Feb-14 07:59N 43°06' E 005°53'0 0.0
2019-Feb-14 07:29N 43°06' E 005°53'0 0.0
2019-Feb-14 06:59N 43°06' E 005°53'0 0.0
2019-Feb-14 06:29N 43°06' E 005°53'0 0.0
2019-Feb-14 05:59N 43°06' E 005°53'0 0.0
2019-Feb-14 05:29N 43°06' E 005°53'0 0.0
2019-Feb-14 04:59N 43°06' E 005°53'0 0.0
2019-Feb-14 04:29N 43°06' E 005°53'0 0.0
2019-Feb-14 03:59N 43°06' E 005°53'0 0.0
2019-Feb-14 02:59N 43°06' E 005°53'0 0.0
2019-Feb-14 02:29N 43°06' E 005°53'0 0.0
2019-Feb-14 01:59N 43°06' E 005°53'0 0.0
2019-Feb-14 01:29N 43°06' E 005°53'0 0.0
2019-Feb-14 00:59N 43°06' E 005°53'0 0.0
2019-Feb-14 00:29N 43°06' E 005°53'0 0.0
2019-Feb-13 23:56N 43°06' E 005°53'0 0.0
2019-Feb-13 23:29N 43°06' E 005°53'0 0.0
2019-Feb-13 22:59N 43°06' E 005°53'0 0.0
2019-Feb-13 22:29N 43°06' E 005°53'0 0.0
2019-Feb-13 21:59N 43°06' E 005°53'0 0.0
2019-Feb-13 21:29N 43°06' E 005°53'0 0.0
2019-Feb-13 20:59N 43°06' E 005°53'0 0.0
2019-Feb-13 20:29N 43°06' E 005°53'0 0.0
2019-Feb-13 19:59N 43°06' E 005°53'0 0.0
2019-Feb-13 19:29N 43°06' E 005°53'0 0.0
2019-Feb-13 18:59N 43°06' E 005°53'0 0.0
2019-Feb-13 18:29N 43°06' E 005°53'0 0.0
2019-Feb-13 17:59N 43°06' E 005°53'  
Track history (hours):
 
Tides and Currents Weather Stations Pressure Air Temp Water Temp Dewpoint Dewpoint Depression Visibility Wind Speed Wind Dir Waves Ship Positions

Oceanographic research ship Thetys II (France)

Last reported at 2019-Feb-23 17:58 UTC. Time now 2019-Feb-23 18:11 UTC.
Position N 43°42' E 007°17'.

Length 25 m; beam 8 m.

Type: Ship. MMSI: 227212000.

Date/timePositionNaut miles runAvg speedWind from/ knotsBaromVisibWave heightAir tempDewpointWater temp
2019-Feb-23 17:58N 43°42' E 007°17'0 0.0
2019-Feb-23 17:28N 43°42' E 007°17'0 0.0
2019-Feb-23 16:58N 43°42' E 007°17'0 0.0
2019-Feb-23 16:28N 43°42' E 007°17'0 0.0
2019-Feb-23 15:58N 43°42' E 007°17'0 0.0
2019-Feb-23 15:28N 43°42' E 007°17'1 1.8
2019-Feb-23 15:01N 43°41' E 007°18'4 8.1
2019-Feb-23 14:30N 43°38' E 007°21'1 2.3
2019-Feb-23 14:01N 43°37' E 007°22'2 3.2
2019-Feb-23 13:30N 43°37' E 007°20'1 2.6
2019-Feb-23 13:01N 43°38' E 007°18'4 8.3
2019-Feb-23 12:31N 43°42' E 007°17'0 0.3
2019-Feb-23 11:58N 43°42' E 007°17'0 0.0
2019-Feb-23 11:28N 43°42' E 007°17'0 0.0
2019-Feb-23 10:58N 43°42' E 007°17'0 0.0
2019-Feb-23 10:28N 43°42' E 007°17'0 0.0
2019-Feb-23 09:58N 43°42' E 007°17'0 0.0
2019-Feb-23 09:28N 43°42' E 007°17'0 0.0
2019-Feb-23 08:58N 43°42' E 007°17'0 0.0
2019-Feb-23 08:28N 43°42' E 007°17'0 0.0
2019-Feb-23 07:58N 43°42' E 007°17'0 0.0
2019-Feb-23 07:25N 43°42' E 007°17'0 0.0
2019-Feb-23 07:00N 43°42' E 007°17'0 0.0
2019-Feb-23 06:31N 43°42' E 007°17'2 4.5
2019-Feb-23 06:00N 43°40' E 007°16'3 6.0
2019-Feb-23 05:31N 43°37' E 007°14'3 6.1
2019-Feb-23 05:01N 43°34' E 007°12'3 6.0
2019-Feb-23 04:31N 43°32' E 007°10'3 5.6
2019-Feb-23 04:01N 43°30' E 007°07'3 5.7
2019-Feb-23 03:31N 43°28' E 007°05'3 5.5
2019-Feb-23 03:01N 43°26' E 007°02'3 5.6
2019-Feb-23 02:31N 43°23' E 006°60'3 5.6
2019-Feb-23 02:00N 43°21' E 006°57'3 5.4
2019-Feb-23 01:30N 43°20' E 006°54'3 5.4
2019-Feb-23 01:00N 43°17' E 006°52'3 5.5
2019-Feb-23 00:31N 43°15' E 006°49'2 4.5
2019-Feb-23 00:00N 43°14' E 006°47'3 5.1
2019-Feb-22 23:28N 43°11' E 006°45'2 4.4
2019-Feb-22 23:00N 43°10' E 006°43'2 5.0
2019-Feb-22 22:31N 43°08' E 006°40'5 5.3
2019-Feb-22 21:38N 43°07' E 006°34'1 5.4
2019-Feb-22 21:30N 43°07' E 006°33'3 5.4
2019-Feb-22 20:52N 43°06' E 006°29'2 5.4
2019-Feb-22 20:31N 43°05' E 006°26'3 5.4
2019-Feb-22 20:00N 43°04' E 006°23'3 5.5
2019-Feb-22 19:30N 43°04' E 006°19'3 5.5
2019-Feb-22 18:58N 43°03' E 006°15'14 6.5
2019-Feb-22 16:52N 43°05' E 005°57'2 6.8
2019-Feb-22 16:30N 43°06' E 005°54'1 1.5
2019-Feb-22 15:58N 43°06' E 005°53'0 0.0
2019-Feb-22 15:28N 43°06' E 005°53'0 0.0
2019-Feb-22 14:58N 43°06' E 005°53'0 0.0
2019-Feb-22 14:28N 43°06' E 005°53'0 0.0
2019-Feb-22 13:58N 43°06' E 005°53'0 0.0
2019-Feb-22 13:28N 43°06' E 005°53'0 0.0
2019-Feb-22 12:58N 43°06' E 005°53'0 0.0
2019-Feb-22 12:28N 43°06' E 005°53'0 0.0
2019-Feb-22 11:58N 43°06' E 005°53'0 0.0
2019-Feb-22 11:28N 43°06' E 005°53'0 0.0
2019-Feb-22 10:58N 43°06' E 005°53'0 0.0
2019-Feb-22 10:28N 43°06' E 005°53'0 0.0
2019-Feb-22 09:58N 43°06' E 005°53'0 0.0
2019-Feb-22 09:28N 43°06' E 005°53'0 0.0
2019-Feb-22 08:58N 43°06' E 005°53'0 0.0
2019-Feb-22 08:28N 43°06' E 005°53'0 0.0
2019-Feb-22 07:58N 43°06' E 005°53'0 0.0
2019-Feb-22 07:28N 43°06' E 005°53'0 0.0
2019-Feb-22 06:58N 43°06' E 005°53'0 0.0
2019-Feb-22 06:28N 43°06' E 005°53'0 0.0
2019-Feb-22 05:58N 43°06' E 005°53'0 0.0
2019-Feb-22 05:28N 43°06' E 005°53'0 0.0
2019-Feb-22 04:58N 43°06' E 005°53'0 0.0
2019-Feb-22 04:28N 43°06' E 005°53'0 0.0
2019-Feb-22 03:58N 43°06' E 005°53'0 0.0
2019-Feb-22 03:28N 43°06' E 005°53'0 0.0
2019-Feb-22 02:58N 43°06' E 005°53'0 0.0
2019-Feb-22 02:28N 43°06' E 005°53'0 0.0
2019-Feb-22 01:58N 43°06' E 005°53'0 0.0
2019-Feb-22 01:28N 43°06' E 005°53'0 0.0
2019-Feb-22 00:58N 43°06' E 005°53'0 0.0
2019-Feb-22 00:28N 43°06' E 005°53'0 0.0
2019-Feb-21 23:58N 43°06' E 005°53'0 0.0
2019-Feb-21 23:28N 43°06' E 005°53'0 0.0
2019-Feb-21 22:58N 43°06' E 005°53'0 0.0
2019-Feb-21 22:28N 43°06' E 005°53'0 0.0
2019-Feb-21 21:58N 43°06' E 005°53'0 0.0
2019-Feb-21 21:28N 43°06' E 005°53'0 0.0
2019-Feb-21 20:58N 43°06' E 005°53'0 0.0
2019-Feb-21 20:28N 43°06' E 005°53'0 0.0
2019-Feb-21 19:55N 43°06' E 005°53'0 0.0
2019-Feb-21 19:28N 43°06' E 005°53'0 0.0
2019-Feb-21 18:58N 43°06' E 005°53'0 0.0
2019-Feb-21 18:28N 43°06' E 005°53'0 0.0
2019-Feb-21 17:55N 43°06' E 005°53'0 0.0
2019-Feb-21 17:28N 43°06' E 005°53'0 0.0
2019-Feb-21 16:58N 43°06' E 005°53'0 0.0
2019-Feb-21 16:28N 43°06' E 005°53'0 0.0
2019-Feb-21 15:58N 43°06' E 005°53'0 0.0
2019-Feb-21 15:28N 43°06' E 005°53'0 0.0
2019-Feb-21 14:58N 43°06' E 005°53'0 0.0
2019-Feb-21 14:28N 43°06' E 005°53'0 0.0
2019-Feb-21 13:58N 43°06' E 005°53'0 0.0
2019-Feb-21 13:28N 43°06' E 005°53'0 0.0
2019-Feb-21 12:58N 43°06' E 005°53'0 0.0
2019-Feb-21 12:28N 43°06' E 005°53'0 0.0
2019-Feb-21 11:58N 43°06' E 005°53'0 0.0
2019-Feb-21 11:28N 43°06' E 005°53'0 0.0
2019-Feb-21 10:58N 43°06' E 005°53'0 0.0
2019-Feb-21 10:28N 43°06' E 005°53'0 0.0
2019-Feb-21 09:58N 43°06' E 005°53'0 0.0
2019-Feb-21 09:28N 43°06' E 005°53'0 0.0
2019-Feb-21 08:58N 43°06' E 005°53'0 0.0
2019-Feb-21 08:28N 43°06' E 005°53'0 0.0
2019-Feb-21 07:58N 43°06' E 005°53'0 0.0
2019-Feb-21 07:28N 43°06' E 005°53'0 0.0
2019-Feb-21 06:58N 43°06' E 005°53'0 0.0
2019-Feb-21 06:28N 43°06' E 005°53'0 0.0
2019-Feb-21 05:58N 43°06' E 005°53'0 0.0
2019-Feb-21 05:28N 43°06' E 005°53'0 0.0
2019-Feb-21 04:58N 43°06' E 005°53'0 0.0
2019-Feb-21 04:28N 43°06' E 005°53'0 0.0
2019-Feb-21 03:58N 43°06' E 005°53'0 0.0
2019-Feb-21 03:28N 43°06' E 005°53'0 0.0
2019-Feb-21 02:58N 43°06' E 005°53'0 0.0
2019-Feb-21 02:28N 43°06' E 005°53'0 0.0
2019-Feb-21 01:58N 43°06' E 005°53'0 0.0
2019-Feb-21 01:28N 43°06' E 005°53'0 0.0
2019-Feb-21 00:58N 43°06' E 005°53'0 0.0
2019-Feb-21 00:28N 43°06' E 005°53'0 0.0
2019-Feb-20 23:58N 43°06' E 005°53'0 0.0
2019-Feb-20 23:28N 43°06' E 005°53'0 0.0
2019-Feb-20 22:58N 43°06' E 005°53'0 0.0
2019-Feb-20 22:28N 43°06' E 005°53'0 0.0
2019-Feb-20 21:58N 43°06' E 005°53'0 0.0
2019-Feb-20 21:28N 43°06' E 005°53'0 0.0
2019-Feb-20 20:58N 43°06' E 005°53'0 0.0
2019-Feb-20 20:28N 43°06' E 005°53'1 2.3
2019-Feb-20 20:01N 43°06' E 005°55'1 0.1
2019-Feb-20 09:33N 43°06' E 005°55'0 9.4
2019-Feb-20 09:30N 43°06' E 005°55'2 3.0
2019-Feb-20 09:00N 43°06' E 005°53'0 0.0
2019-Feb-20 08:30N 43°06' E 005°53'0 0.0
2019-Feb-20 08:00N 43°06' E 005°53'0 0.0
2019-Feb-20 07:30N 43°06' E 005°53'0 0.0
2019-Feb-20 07:00N 43°06' E 005°53'1 2.6
2019-Feb-20 06:30N 43°06' E 005°55'37 6.4
2019-Feb-20 00:47N 43°07' E 006°45'3 8.9
2019-Feb-20 00:29N 43°09' E 006°47'4 8.8
2019-Feb-20 00:00N 43°13' E 006°51'4 8.8
2019-Feb-19 23:30N 43°16' E 006°55'4 8.8
2019-Feb-19 23:00N 43°20' E 006°59'5 9.2
2019-Feb-19 22:30N 43°23' E 007°02'5 9.2
2019-Feb-19 22:00N 43°27' E 007°06'5 9.0
2019-Feb-19 21:31N 43°31' E 007°10'4 8.6
2019-Feb-19 21:01N 43°34' E 007°13'4 8.4
2019-Feb-19 20:31N 43°38' E 007°16'4 7.5
2019-Feb-19 20:00N 43°42' E 007°17'0 0.5
2019-Feb-19 19:30N 43°42' E 007°17'0 0.0
2019-Feb-19 19:00N 43°42' E 007°17'0 0.0
2019-Feb-19 18:30N 43°42' E 007°17'0 0.0
2019-Feb-19 18:00N 43°42' E 007°17'0 0.1
2019-Feb-19 17:31N 43°42' E 007°17'4 8.5
2019-Feb-19 17:01N 43°38' E 007°21'510.6
2019-Feb-19 16:31N 43°35' E 007°27'510.8
2019-Feb-19 16:01N 43°33' E 007°33'611.3
2019-Feb-19 15:31N 43°30' E 007°40'611.5
2019-Feb-19 15:01N 43°27' E 007°47'5 9.0
2019-Feb-19 14:31N 43°24' E 007°51'3 5.3
2019-Feb-19 14:00N 43°23' E 007°54'1 1.1
2019-Feb-19 13:31N 43°22' E 007°54'0 0.8
2019-Feb-19 13:00N 43°22' E 007°54'0 0.2
2019-Feb-19 12:31N 43°22' E 007°54'0 0.2
2019-Feb-19 12:00N 43°22' E 007°54'0 0.2
2019-Feb-19 11:31N 43°22' E 007°54'4 8.8
2019-Feb-19 11:01N 43°24' E 007°49'510.9
2019-Feb-19 10:31N 43°27' E 007°42'510.8
2019-Feb-19 10:00N 43°30' E 007°36'511.0
2019-Feb-19 09:31N 43°33' E 007°30'611.1
2019-Feb-19 09:01N 43°37' E 007°24'611.3
2019-Feb-19 08:31N 43°40' E 007°18'2 3.0
2019-Feb-19 07:58N 43°42' E 007°17'0 0.3
2019-Feb-19 07:29N 43°42' E 007°17'0 0.1
2019-Feb-19 06:59N 43°42' E 007°17'0 0.6
2019-Feb-19 06:29N 43°42' E 007°17'1 1.2
2019-Feb-19 05:56N 43°41' E 007°17'1 1.4
2019-Feb-19 05:29N 43°42' E 007°17'0 0.3
2019-Feb-19 04:59N 43°42' E 007°17'0 0.4
2019-Feb-19 04:29N 43°42' E 007°17'0 0.5
2019-Feb-19 03:59N 43°42' E 007°16'0 0.7
2019-Feb-19 03:29N 43°42' E 007°17'0 0.1
2019-Feb-19 02:59N 43°42' E 007°17'0 0.1
2019-Feb-19 02:29N 43°42' E 007°16'0 0.4
2019-Feb-19 01:59N 43°42' E 007°17'0 0.1
2019-Feb-19 01:29N 43°42' E 007°17'0 0.3
2019-Feb-19 00:59N 43°42' E 007°17'0 0.2
2019-Feb-19 00:29N 43°42' E 007°17'0 0.9
2019-Feb-18 23:59N 43°42' E 007°17'0 0.5
2019-Feb-18 23:29N 43°42' E 007°17'0 0.4
2019-Feb-18 22:59N 43°42' E 007°17'0 0.5
2019-Feb-18 22:29N 43°42' E 007°17'0 0.6
2019-Feb-18 21:59N 43°42' E 007°17'0 0.7
2019-Feb-18 21:29N 43°42' E 007°17'0 0.3
2019-Feb-18 20:59N 43°42' E 007°17'0 0.6
2019-Feb-18 20:29N 43°42' E 007°17'0 0.1
2019-Feb-18 19:59N 43°42' E 007°17'0 0.1
2019-Feb-18 19:29N 43°42' E 007°17'0 0.8
2019-Feb-18 19:00N 43°42' E 007°17'3 6.3
2019-Feb-18 18:30N 43°39' E 007°20'611.5
2019-Feb-18 18:01N 43°36' E 007°26'5 9.9
2019-Feb-18 17:31N 43°34' E 007°32'611.0
2019-Feb-18 17:01N 43°30' E 007°38'5 9.7
2019-Feb-18 16:31N 43°27' E 007°43'510.2
2019-Feb-18 16:01N 43°24' E 007°49'3 6.4
2019-Feb-18 15:31N 43°22' E 007°52'1 1.7
2019-Feb-18 15:00N 43°22' E 007°53'0 0.4
2019-Feb-18 14:30N 43°22' E 007°53'0 0.5
2019-Feb-18 14:01N 43°22' E 007°54'0 0.4
2019-Feb-18 13:31N 43°22' E 007°54'0 0.9
2019-Feb-18 13:01N 43°22' E 007°53'0 0.5
2019-Feb-18 12:31N 43°22' E 007°54'1 2.2
2019-Feb-18 12:01N 43°23' E 007°53'0 0.5
2019-Feb-18 11:31N 43°23' E 007°54'0 0.3
2019-Feb-18 11:00N 43°22' E 007°54'1 1.4
2019-Feb-18 10:31N 43°22' E 007°53'4 7.3
2019-Feb-18 10:01N 43°24' E 007°48'510.5
2019-Feb-18 09:31N 43°27' E 007°43'611.2
2019-Feb-18 09:01N 43°31' E 007°37'611.4
2019-Feb-18 08:31N 43°35' E 007°31'611.1
2019-Feb-18 08:00N 43°38' E 007°25'510.5
2019-Feb-18 07:31N 43°40' E 007°18'2 3.5
2019-Feb-18 07:00N 43°41' E 007°17'0 0.1
2019-Feb-18 06:27N 43°42' E 007°17'0 0.3
2019-Feb-18 06:00N 43°42' E 007°17'0 0.5
2019-Feb-18 05:30N 43°42' E 007°17'0 0.3
2019-Feb-18 04:57N 43°42' E 007°17'0 0.2
2019-Feb-18 04:30N 43°42' E 007°17'0 0.7
2019-Feb-18 03:57N 43°42' E 007°16'0 0.4
2019-Feb-18 03:30N 43°42' E 007°17'0 0.6
2019-Feb-18 02:57N 43°42' E 007°17'0 0.1
2019-Feb-18 02:27N 43°42' E 007°17'0 0.3
2019-Feb-18 02:00N 43°42' E 007°17'0 0.4
2019-Feb-18 01:27N 43°42' E 007°17'0 0.5
2019-Feb-18 01:00N 43°42' E 007°17'0 0.3
2019-Feb-18 00:30N 43°42' E 007°17'0 0.7
2019-Feb-18 00:00N 43°42' E 007°17'0 0.6
2019-Feb-17 23:30N 43°42' E 007°17'0 0.1
2019-Feb-17 23:00N 43°42' E 007°17'0 0.5
2019-Feb-17 22:30N 43°42' E 007°17'0 0.9
2019-Feb-17 22:00N 43°42' E 007°17'0 0.2
2019-Feb-17 21:30N 43°42' E 007°17'1 1.6
2019-Feb-17 21:00N 43°42' E 007°17'1 1.2
2019-Feb-17 20:30N 43°42' E 007°17'0 0.0
2019-Feb-17 20:00N 43°42' E 007°17'0 0.0
2019-Feb-17 19:30N 43°42' E 007°17'1 1.0
2019-Feb-17 19:00N 43°41' E 007°17'4 7.8
2019-Feb-17 18:30N 43°39' E 007°20'4 8.8
2019-Feb-17 18:01N 43°37' E 007°26'4 8.9
2019-Feb-17 17:30N 43°35' E 007°31'5 9.8
2019-Feb-17 17:01N 43°32' E 007°37'5 9.5
2019-Feb-17 16:31N 43°29' E 007°42'5 9.6
2019-Feb-17 16:00N 43°26' E 007°47'2 4.9
2019-Feb-17 15:30N 43°25' E 007°50'2 3.7
2019-Feb-17 15:00N 43°24' E 007°52'2 3.7
2019-Feb-17 14:30N 43°22' E 007°54'0 0.7
2019-Feb-17 14:00N 43°23' E 007°54'0 0.8
2019-Feb-17 13:30N 43°23' E 007°54'1 1.8
2019-Feb-17 13:00N 43°22' E 007°54'0 0.6
2019-Feb-17 12:30N 43°22' E 007°54'0 0.9
2019-Feb-17 12:00N 43°22' E 007°54'0 0.9
2019-Feb-17 11:29N 43°22' E 007°54'0 0.5
2019-Feb-17 11:00N 43°23' E 007°54'1 1.1
2019-Feb-17 10:30N 43°22' E 007°53'510.5
2019-Feb-17 10:00N 43°25' E 007°47'510.5
2019-Feb-17 09:30N 43°28' E 007°42'510.8
2019-Feb-17 09:01N 43°31' E 007°35'511.0
2019-Feb-17 08:31N 43°34' E 007°29'510.6
2019-Feb-17 08:00N 43°38' E 007°23'510.0
2019-Feb-17 07:30N 43°40' E 007°17'1 2.7
2019-Feb-17 07:00N 43°41' E 007°17'0 0.4
2019-Feb-17 06:30N 43°42' E 007°17'0 0.3
2019-Feb-17 06:00N 43°42' E 007°17'0 0.5
2019-Feb-17 05:30N 43°42' E 007°17'0 0.3
2019-Feb-17 05:00N 43°42' E 007°17'0 0.2
2019-Feb-17 04:30N 43°42' E 007°17'0 0.2
2019-Feb-17 04:00N 43°42' E 007°17'0 0.2
2019-Feb-17 03:30N 43°42' E 007°17'0 0.1
2019-Feb-17 03:00N 43°42' E 007°17'0 0.5
2019-Feb-17 02:30N 43°42' E 007°17'0 0.6
2019-Feb-17 02:00N 43°42' E 007°17'0 0.1
2019-Feb-17 01:30N 43°42' E 007°17'0 0.3
2019-Feb-17 01:00N 43°42' E 007°17'0 0.8
2019-Feb-17 00:30N 43°42' E 007°17'0 0.1
2019-Feb-17 00:00N 43°42' E 007°17'0 0.2
2019-Feb-16 23:30N 43°42' E 007°17'0 0.2
2019-Feb-16 23:00N 43°42' E 007°17'1 1.4
2019-Feb-16 22:30N 43°42' E 007°18'0 0.4
2019-Feb-16 21:57N 43°42' E 007°17'1 1.6
2019-Feb-16 21:30N 43°42' E 007°17'0 0.2
2019-Feb-16 21:00N 43°42' E 007°17'0 0.8
2019-Feb-16 20:30N 43°42' E 007°17'0 0.1
2019-Feb-16 20:00N 43°42' E 007°17'0 0.2
2019-Feb-16 19:30N 43°42' E 007°17'0 0.6
2019-Feb-16 19:00N 43°42' E 007°17'0 0.4
2019-Feb-16 18:27N 43°41' E 007°17'0 0.9
2019-Feb-16 18:00N 43°42' E 007°17'0 0.8
2019-Feb-16 17:30N 43°42' E 007°17'1 1.3
2019-Feb-16 16:57N 43°41' E 007°17'0 0.0
2019-Feb-16 16:30N 43°41' E 007°17'4 8.7
2019-Feb-16 16:00N 43°38' E 007°21'611.7
2019-Feb-16 15:30N 43°35' E 007°28'611.1
2019-Feb-16 15:00N 43°32' E 007°35'611.3
2019-Feb-16 14:30N 43°29' E 007°41'611.9
2019-Feb-16 14:00N 43°26' E 007°48'1 2.3
2019-Feb-16 13:30N 43°25' E 007°49'0 0.6
2019-Feb-16 13:00N 43°25' E 007°49'1 1.2
2019-Feb-16 12:30N 43°25' E 007°50'1 1.4
2019-Feb-16 12:00N 43°25' E 007°51'0 0.4
2019-Feb-16 11:30N 43°25' E 007°51'0 0.9
2019-Feb-16 11:00N 43°26' E 007°51'1 1.9
2019-Feb-16 10:30N 43°25' E 007°50'2 3.3
2019-Feb-16 10:00N 43°26' E 007°48'510.6
2019-Feb-16 09:30N 43°29' E 007°43'510.5
2019-Feb-16 09:00N 43°32' E 007°37'510.8
2019-Feb-16 08:30N 43°35' E 007°30'5 9.8
2019-Feb-16 08:00N 43°37' E 007°25'510.3
2019-Feb-16 07:30N 43°40' E 007°18'2 4.1
2019-Feb-16 06:59N 43°41' E 007°17'0 0.1
2019-Feb-16 06:26N 43°41' E 007°17'0 1.1
2019-Feb-16 05:59N 43°42' E 007°17'0 0.2
2019-Feb-16 05:29N 43°42' E 007°17'0 0.3
2019-Feb-16 04:59N 43°42' E 007°17'0 0.4
2019-Feb-16 04:23N 43°42' E 007°17'0 0.1
2019-Feb-16 03:59N 43°42' E 007°16'0 0.2
2019-Feb-16 03:29N 43°42' E 007°16'0 0.4
2019-Feb-16 02:59N 43°42' E 007°17'0 0.2
2019-Feb-16 02:29N 43°42' E 007°17'0 0.2
2019-Feb-16 01:56N 43°42' E 007°17'0 0.7
2019-Feb-16 01:29N 43°42' E 007°17'1 1.1
2019-Feb-16 00:59N 43°42' E 007°17'1 1.1
2019-Feb-16 00:29N 43°42' E 007°16'0 0.2
2019-Feb-15 23:59N 43°42' E 007°17'0 0.3
2019-Feb-15 23:29N 43°42' E 007°17'0 0.4
2019-Feb-15 22:59N 43°42' E 007°17'0 0.6
2019-Feb-15 22:26N 43°42' E 007°17'0 0.6
2019-Feb-15 21:59N 43°41' E 007°17'0 0.2
2019-Feb-15 21:29N 43°41' E 007°17'0 0.9
2019-Feb-15 20:59N 43°42' E 007°17'1 1.2
2019-Feb-15 20:29N 43°42' E 007°18'1 1.1
2019-Feb-15 19:59N 43°42' E 007°17'0 0.9
2019-Feb-15 19:29N 43°42' E 007°17'0 0.9
2019-Feb-15 18:59N 43°41' E 007°17'0 0.3
2019-Feb-15 18:30N 43°41' E 007°17'0 0.7
2019-Feb-15 18:00N 43°42' E 007°17'0 0.7
2019-Feb-15 17:30N 43°42' E 007°17'1 1.3
2019-Feb-15 17:00N 43°41' E 007°17'0 0.6
2019-Feb-15 16:27N 43°41' E 007°17'0 0.3
2019-Feb-15 16:00N 43°41' E 007°17'1 1.0
2019-Feb-15 15:24N 43°42' E 007°17'2 4.8
2019-Feb-15 15:01N 43°40' E 007°16'611.2
2019-Feb-15 14:30N 43°35' E 007°13'510.7
2019-Feb-15 14:01N 43°31' E 007°09'510.9
2019-Feb-15 13:31N 43°27' E 007°04'510.5
2019-Feb-15 13:00N 43°23' E 006°59'510.2
2019-Feb-15 12:31N 43°19' E 006°54'5 9.5
2019-Feb-15 12:00N 43°16' E 006°49'510.5
2019-Feb-15 11:31N 43°12' E 006°44'37 9.8
2019-Feb-15 07:47N 43°06' E 005°55'1 5.3
2019-Feb-15 07:30N 43°06' E 005°53'0 0.7
2019-Feb-15 06:58N 43°06' E 005°53'0 0.2
2019-Feb-15 06:28N 43°06' E 005°53'0 0.7
2019-Feb-15 05:58N 43°06' E 005°53'1 0.9
2019-Feb-15 05:25N 43°07' E 005°53'0 0.3
2019-Feb-15 04:58N 43°07' E 005°53'0 0.2
2019-Feb-15 04:28N 43°07' E 005°53'0 0.2
2019-Feb-15 03:58N 43°06' E 005°53'0 0.1
2019-Feb-15 03:28N 43°06' E 005°53'0 0.2
2019-Feb-15 02:58N 43°07' E 005°53'0 0.4
2019-Feb-15 02:28N 43°07' E 005°53'0 0.4
2019-Feb-15 01:58N 43°07' E 005°53'0 0.4
2019-Feb-15 01:28N 43°06' E 005°53'0 0.4
2019-Feb-15 00:58N 43°06' E 005°53'0 0.5
2019-Feb-15 00:28N 43°06' E 005°53'0 0.6
2019-Feb-14 23:58N 43°07' E 005°53'0 0.2
2019-Feb-14 23:28N 43°06' E 005°53'0 0.7
2019-Feb-14 22:58N 43°06' E 005°53'0 0.2
2019-Feb-14 22:28N 43°06' E 005°53'0 0.2
2019-Feb-14 21:58N 43°06' E 005°53'0 0.2
2019-Feb-14 21:28N 43°06' E 005°53'0 1.0
2019-Feb-14 20:59N 43°06' E 005°53'0 0.4
2019-Feb-14 20:25N 43°06' E 005°53'0 0.3
2019-Feb-14 19:58N 43°07' E 005°53'0 0.6
2019-Feb-14 19:28N 43°06' E 005°53'0 0.1
2019-Feb-14 18:58N 43°06' E 005°53'0 0.4
2019-Feb-14 18:28N 43°06' E 005°53'0 0.5
2019-Feb-14 17:58N 43°06' E 005°53'0 0.3
2019-Feb-14 17:28N 43°06' E 005°53'0 0.1
2019-Feb-14 16:58N 43°07' E 005°53'0 0.4
2019-Feb-14 16:23N 43°06' E 005°53'0 0.0
2019-Feb-14 15:59N 43°06' E 005°53'0 0.0
2019-Feb-14 15:29N 43°06' E 005°53'0 0.0
2019-Feb-14 14:59N 43°06' E 005°53'0 0.0
2019-Feb-14 14:29N 43°06' E 005°53'0 0.0
2019-Feb-14 13:59N 43°06' E 005°53'0 0.0
2019-Feb-14 13:29N 43°06' E 005°53'0 0.0
2019-Feb-14 12:59N 43°06' E 005°53'0 0.0
2019-Feb-14 12:29N 43°06' E 005°53'0 0.0
2019-Feb-14 11:59N 43°06' E 005°53'0 0.0
2019-Feb-14 11:29N 43°06' E 005°53'0 0.0
2019-Feb-14 10:59N 43°06' E 005°53'0 0.0
2019-Feb-14 10:29N 43°06' E 005°53'0 0.0
2019-Feb-14 09:59N 43°06' E 005°53'0 0.0
2019-Feb-14 09:29N 43°06' E 005°53'0 0.0
2019-Feb-14 08:59N 43°06' E 005°53'0 0.0
2019-Feb-14 08:29N 43°06' E 005°53'0 0.0
2019-Feb-14 07:59N 43°06' E 005°53'0 0.0
2019-Feb-14 07:29N 43°06' E 005°53'0 0.0
2019-Feb-14 06:59N 43°06' E 005°53'0 0.0
2019-Feb-14 06:29N 43°06' E 005°53'0 0.0
2019-Feb-14 05:59N 43°06' E 005°53'0 0.0
2019-Feb-14 05:29N 43°06' E 005°53'0 0.0
2019-Feb-14 04:59N 43°06' E 005°53'0 0.0
2019-Feb-14 04:29N 43°06' E 005°53'0 0.0
2019-Feb-14 03:59N 43°06' E 005°53'0 0.0
2019-Feb-14 02:59N 43°06' E 005°53'0 0.0
2019-Feb-14 02:29N 43°06' E 005°53'0 0.0
2019-Feb-14 01:59N 43°06' E 005°53'0 0.0
2019-Feb-14 01:29N 43°06' E 005°53'0 0.0
2019-Feb-14 00:59N 43°06' E 005°53'0 0.0
2019-Feb-14 00:29N 43°06' E 005°53'0 0.0
2019-Feb-13 23:56N 43°06' E 005°53'0 0.0
2019-Feb-13 23:29N 43°06' E 005°53'0 0.0
2019-Feb-13 22:59N 43°06' E 005°53'0 0.0
2019-Feb-13 22:29N 43°06' E 005°53'0 0.0
2019-Feb-13 21:59N 43°06' E 005°53'0 0.0
2019-Feb-13 21:29N 43°06' E 005°53'0 0.0
2019-Feb-13 20:59N 43°06' E 005°53'0 0.0
2019-Feb-13 20:29N 43°06' E 005°53'0 0.0
2019-Feb-13 19:59N 43°06' E 005°53'0 0.0
2019-Feb-13 19:29N 43°06' E 005°53'0 0.0
2019-Feb-13 18:59N 43°06' E 005°53'0 0.0
2019-Feb-13 18:29N 43°06' E 005°53'0 0.0
2019-Feb-13 17:59N 43°06' E 005°53'  

Dump ship's entire track history